Terminal Aerodrome Forecast
Issued by NWS Wilmington, OH

Current Version | Previous Version | Graphics & Text | Print | Product List | Glossary On
Versions: 1 2 3 4 5 6 7 8 9 10 11 12 13 14 15 16 17 18 19
000
FTUS41 KILN 242146 AAB
TAFCMH
TAF AMD
KCMH 242146Z 2422/2518 36006KT P6SM SCT050 BKN200
     FM250100 VRB03KT P6SM SCT150 BKN250
     FM251300 21005KT P6SM BKN250
     FM251600 24007KT P6SM VCTS BKN040CB=

USA.gov is the U.S. government's official web portal to all federal, state and local government web resources and services.